Time;durP1;ratioP1;P1;durP2;ratioP2;P2;SDS_P1;SDS_P2;PMS_P1;PMS_P2;Temp;Humidity;BMP_temperature;BMP_pressure;BME280_temperature;BME280_humidity;BME280_pressure;Samples;Min_cycle;Max_cycle;Signal;HPM_P1;HPM_P2
2023/03/13 00:01:09;;;;;;;2.17;1.00;;;12.00;99.90;;;;;;5063392;28;20049;-77
2023/03/13 00:03:35;;;;;;;3.45;0.90;;;12.00;99.90;;;;;;5067648;28;20045;-79
2023/03/13 00:06:02;;;;;;;1.75;0.80;;;12.00;99.90;;;;;;5059338;28;20049;-78
2023/03/13 00:08:29;;;;;;;3.50;1.45;;;12.00;99.90;;;;;;5061615;28;20562;-77
2023/03/13 00:10:56;;;;;;;2.30;0.50;;;12.00;99.90;;;;;;5058242;28;20135;-78
2023/03/13 00:13:23;;;;;;;3.20;0.95;;;12.10;99.90;;;;;;5066357;28;20584;-77
2023/03/13 00:16:02;;;;;;;2.90;0.90;;;12.10;99.90;;;;;;5058480;28;20045;-77
2023/03/13 00:18:29;;;;;;;2.45;0.65;;;12.10;99.90;;;;;;5069957;28;20040;-79
2023/03/13 00:21:00;;;;;;;2.28;0.70;;;12.10;99.90;;;;;;5071306;28;20071;-76
2023/03/13 00:23:28;;;;;;;2.80;0.75;;;12.20;99.90;;;;;;5073274;28;20044;-79
2023/03/13 00:26:08;;;;;;;4.95;0.90;;;12.20;99.90;;;;;;5066988;28;20060;-79
2023/03/13 00:28:36;;;;;;;;;;;12.20;99.90;;;;;;5065447;28;20153;-79
2023/03/13 00:31:11;;;;;;;2.65;1.02;;;12.20;99.90;;;;;;5068026;28;20007;-80
2023/03/13 00:33:42;;;;;;;1.20;0.60;;;12.20;99.90;;;;;;5071020;28;20094;-78
2023/03/13 00:36:12;;;;;;;3.20;0.80;;;12.20;99.90;;;;;;5067801;28;20048;-79
2023/03/13 00:38:39;;;;;;;3.85;0.80;;;12.30;99.90;;;;;;5062243;28;20044;-80
2023/03/13 00:41:11;;;;;;;2.63;0.70;;;12.30;99.90;;;;;;5064130;28;20045;-78
2023/03/13 00:43:39;;;;;;;5.20;0.88;;;12.20;99.90;;;;;;5060886;28;20523;-78
2023/03/13 00:46:07;;;;;;;1.58;0.65;;;12.30;99.90;;;;;;5064068;28;20048;-79
2023/03/13 00:48:34;;;;;;;1.05;0.63;;;12.30;99.90;;;;;;5060213;28;20064;-78
2023/03/13 00:51:02;;;;;;;1.27;0.60;;;12.30;99.90;;;;;;5067541;28;20052;-80
2023/03/13 00:53:29;;;;;;;1.20;0.55;;;12.30;99.90;;;;;;5060622;28;20053;-76
2023/03/13 00:56:00;;;;;;;3.33;1.08;;;12.30;99.90;;;;;;5064613;28;20049;-78
2023/03/13 00:58:29;;;;;;;1.05;0.52;;;12.40;99.90;;;;;;5057922;28;20041;-78
2023/03/13 01:00:56;;;;;;;0.85;0.63;;;12.40;99.90;;;;;;5063438;28;20052;-79
2023/03/13 01:03:24;;;;;;;2.83;0.68;;;12.40;99.90;;;;;;5059701;28;20070;-79
2023/03/13 01:05:58;;;;;;;3.20;0.90;;;12.40;99.90;;;;;;5068442;28;20147;-79
2023/03/13 01:08:26;;;;;;;2.72;0.68;;;12.40;99.90;;;;;;5072459;28;20044;-77
2023/03/13 01:11:01;;;;;;;2.80;0.68;;;12.40;99.90;;;;;;5066661;28;20064;-77
2023/03/13 01:13:29;;;;;;;1.05;0.60;;;12.40;99.90;;;;;;5072644;28;20059;-78
2023/03/13 01:15:56;;;;;;;4.28;0.82;;;12.40;99.90;;;;;;5065050;28;20072;-77
2023/03/13 01:18:23;;;;;;;1.38;0.60;;;12.40;99.90;;;;;;5068502;28;20051;-77
2023/03/13 01:20:49;;;;;;;1.50;0.52;;;12.40;99.90;;;;;;5063533;28;20076;-78
2023/03/13 01:23:16;;;;;;;2.35;0.90;;;12.40;99.90;;;;;;5066165;28;20496;-76
2023/03/13 01:25:43;;;;;;;1.35;0.60;;;12.40;99.90;;;;;;5071158;28;20055;-80
2023/03/13 01:28:09;;;;;;;3.90;0.70;;;12.40;99.90;;;;;;5066232;28;20059;-77
2023/03/13 01:30:36;;;;;;;1.23;0.55;;;12.40;99.90;;;;;;5062042;28;20056;-79
2023/03/13 01:33:03;;;;;;;3.30;0.85;;;12.50;99.90;;;;;;5062178;28;20044;-78
2023/03/13 01:35:29;;;;;;;1.23;0.60;;;12.50;99.90;;;;;;5062377;28;20044;-78
2023/03/13 01:37:56;;;;;;;2.05;0.50;;;12.50;99.90;;;;;;5060567;28;20045;-77
2023/03/13 01:40:23;;;;;;;3.90;0.60;;;12.50;99.90;;;;;;5060874;28;21237;-78
2023/03/13 01:42:55;;;;;;;3.10;0.82;;;12.50;99.90;;;;;;5059154;28;20088;-80
2023/03/13 01:45:56;;;;;;;3.35;0.70;;;12.50;99.90;;;;;;5058415;28;20056;-79
2023/03/13 01:48:36;;;;;;;2.30;0.60;;;12.50;99.90;;;;;;5063094;28;20060;-78
2023/03/13 01:51:15;;;;;;;1.75;0.73;;;12.50;99.90;;;;;;5069964;28;20049;-78
2023/03/13 01:53:45;;;;;;;2.20;0.70;;;12.40;99.90;;;;;;5065355;28;20056;-78
2023/03/13 01:56:38;;;;;;;3.42;0.85;;;12.40;99.90;;;;;;5066607;28;20080;-78
2023/03/13 01:59:09;;;;;;;3.10;0.70;;;12.40;99.90;;;;;;5082444;28;20041;-78
2023/03/13 02:01:37;;;;;;;0.98;0.52;;;12.40;99.90;;;;;;5071415;28;20500;-80
2023/03/13 02:04:05;;;;;;;2.33;0.88;;;12.40;99.90;;;;;;5064874;28;20127;-78
2023/03/13 02:06:35;;;;;;;1.33;1.02;;;12.40;99.90;;;;;;5068175;28;20103;-78
2023/03/13 02:09:06;;;;;;;3.55;0.82;;;12.40;99.90;;;;;;5061730;28;20059;-79
2023/03/13 02:11:36;;;;;;;1.50;0.57;;;12.40;99.90;;;;;;5063860;28;20047;-77
2023/03/13 02:14:03;;;;;;;1.03;0.50;;;12.40;99.90;;;;;;5059960;28;20045;-79
2023/03/13 02:16:33;;;;;;;1.38;0.45;;;12.40;99.90;;;;;;5061777;28;20299;-76
2023/03/13 02:19:06;;;;;;;1.63;0.73;;;12.40;99.90;;;;;;5058292;28;20045;-77
2023/03/13 02:21:44;;;;;;;1.58;0.60;;;12.40;99.90;;;;;;5065216;28;20040;-78
2023/03/13 02:24:27;;;;;;;4.70;0.88;;;12.40;99.90;;;;;;5059730;28;20056;-77
2023/03/13 02:26:54;;;;;;;1.10;0.60;;;12.40;99.90;;;;;;5062965;28;20063;-78
2023/03/13 02:29:22;;;;;;;1.90;0.88;;;12.40;99.90;;;;;;5057860;28;20060;-79
2023/03/13 02:31:49;;;;;;;4.05;0.60;;;12.40;99.90;;;;;;5063587;28;20049;-78
2023/03/13 02:34:21;;;;;;;1.55;0.90;;;12.40;99.90;;;;;;5065252;28;20048;-77
2023/03/13 02:36:48;;;;;;;1.58;0.70;;;12.40;99.90;;;;;;5068962;28;20045;-78
2023/03/13 02:39:18;;;;;;;2.20;0.75;;;12.40;99.90;;;;;;5072913;28;20048;-78
2023/03/13 02:41:46;;;;;;;3.15;0.60;;;12.40;99.90;;;;;;5071187;28;20123;-79
2023/03/13 02:44:12;;;;;;;2.05;0.70;;;12.40;99.90;;;;;;5073761;28;20044;-78
2023/03/13 02:46:51;;;;;;;0.80;0.50;;;12.40;99.90;;;;;;5069428;28;20496;-75
2023/03/13 02:49:21;;;;;;;1.33;0.70;;;12.40;99.90;;;;;;5072746;28;20048;-78
2023/03/13 02:51:48;;;;;;;2.85;0.60;;;12.40;99.90;;;;;;5076126;28;20103;-77
2023/03/13 02:54:36;;;;;;;1.25;0.40;;;12.40;99.90;;;;;;5070831;28;20052;-78
2023/03/13 02:57:04;;;;;;;1.30;0.50;;;12.40;99.90;;;;;;5064368;28;20052;-78
2023/03/13 02:59:31;;;;;;;3.15;0.80;;;12.40;99.90;;;;;;5075056;28;20052;-77
2023/03/13 03:01:58;;;;;;;4.97;0.90;;;12.40;99.90;;;;;;5061725;28;20519;-78
2023/03/13 03:04:25;;;;;;;2.30;0.80;;;12.40;99.90;;;;;;5068789;28;20047;-78
2023/03/13 03:06:52;;;;;;;1.05;0.68;;;12.40;99.90;;;;;;5061658;28;20060;-77
2023/03/13 03:09:19;;;;;;;3.20;0.57;;;12.40;99.90;;;;;;5069879;28;20053;-79
2023/03/13 03:11:46;;;;;;;4.30;1.38;;;12.40;99.90;;;;;;5060370;28;20416;-77
2023/03/13 03:14:13;;;;;;;1.27;0.60;;;12.40;99.90;;;;;;5067710;28;20059;-77
2023/03/13 03:16:40;;;;;;;3.58;0.70;;;12.40;99.90;;;;;;5059050;28;20041;-76
2023/03/13 03:19:07;;;;;;;1.38;0.60;;;12.40;99.90;;;;;;5071453;28;20052;-77
2023/03/13 03:21:34;;;;;;;2.35;0.80;;;12.40;99.90;;;;;;5074041;28;20049;-78
2023/03/13 03:24:01;;;;;;;2.45;0.70;;;12.30;99.90;;;;;;5073399;28;20099;-78
2023/03/13 03:26:27;;;;;;;4.03;0.80;;;12.30;99.90;;;;;;5075488;28;20044;-78
2023/03/13 03:28:54;;;;;;;1.60;0.52;;;12.30;99.90;;;;;;5068153;28;20059;-78
2023/03/13 03:31:21;;;;;;;3.08;0.68;;;12.30;99.90;;;;;;5070905;28;20419;-77
2023/03/13 03:33:48;;;;;;;1.08;0.70;;;12.30;99.90;;;;;;5068926;28;20057;-77
2023/03/13 03:36:18;;;;;;;2.08;0.80;;;12.30;99.90;;;;;;5067073;28;20045;-77
2023/03/13 03:38:45;;;;;;;4.32;1.02;;;12.30;99.90;;;;;;5069113;28;20041;-76
2023/03/13 03:41:13;;;;;;;2.47;0.70;;;12.30;99.90;;;;;;5069260;28;20044;-79
2023/03/13 03:43:40;;;;;;;2.45;0.80;;;12.30;99.90;;;;;;5063744;28;20060;-77
2023/03/13 03:46:07;;;;;;;2.28;0.80;;;12.30;99.90;;;;;;5069919;28;20068;-76
2023/03/13 03:48:34;;;;;;;1.42;0.50;;;12.20;99.90;;;;;;5064430;28;20052;-76
2023/03/13 03:51:01;;;;;;;2.85;0.90;;;12.20;99.90;;;;;;5063092;28;20520;-77
2023/03/13 03:53:28;;;;;;;1.88;0.60;;;12.20;99.90;;;;;;5069684;28;20050;-76
2023/03/13 03:55:55;;;;;;;1.45;0.47;;;12.20;99.90;;;;;;5067393;28;20040;-80
2023/03/13 03:58:21;;;;;;;2.67;0.50;;;12.20;99.90;;;;;;5062289;28;20063;-77
2023/03/13 04:00:48;;;;;;;3.70;0.90;;;12.20;99.90;;;;;;5062641;28;20044;-77
2023/03/13 04:03:15;;;;;;;2.13;0.70;;;12.20;99.90;;;;;;5067816;28;20049;-78
2023/03/13 04:05:43;;;;;;;1.77;0.60;;;12.20;99.90;;;;;;5069990;28;20392;-78
2023/03/13 04:08:09;;;;;;;1.17;0.52;;;12.20;99.90;;;;;;5071831;28;20508;-79
2023/03/13 04:10:36;;;;;;;2.05;0.50;;;12.20;99.90;;;;;;5073595;28;20044;-78
2023/03/13 04:13:03;;;;;;;2.63;0.70;;;12.20;99.90;;;;;;5067609;28;20048;-78
2023/03/13 04:15:29;;;;;;;1.50;0.60;;;12.20;99.90;;;;;;5065959;28;20055;-75
2023/03/13 04:17:56;;;;;;;2.05;0.57;;;12.20;99.90;;;;;;5061765;28;20095;-78
2023/03/13 04:20:23;;;;;;;1.17;0.40;;;12.20;99.90;;;;;;5069835;28;20132;-75
2023/03/13 04:22:49;;;;;;;2.40;0.60;;;12.20;99.90;;;;;;5063099;28;20056;-77
2023/03/13 04:25:16;;;;;;;1.45;0.52;;;12.20;99.90;;;;;;5073570;28;20049;-78
2023/03/13 04:27:43;;;;;;;1.73;0.57;;;12.20;99.90;;;;;;5064839;28;20055;-76
2023/03/13 04:30:10;;;;;;;2.67;0.52;;;12.20;99.90;;;;;;5069885;28;20048;-78
2023/03/13 04:32:37;;;;;;;2.38;0.50;;;12.20;99.90;;;;;;5060520;28;20400;-76
2023/03/13 04:35:04;;;;;;;1.70;0.50;;;12.20;99.90;;;;;;5065101;28;20052;-80
2023/03/13 04:37:31;;;;;;;0.40;0.40;;;12.20;99.90;;;;;;5059692;28;20085;-77
2023/03/13 04:39:58;;;;;;;1.98;1.02;;;12.20;99.90;;;;;;5062982;28;20047;-76
2023/03/13 04:42:24;;;;;;;1.15;0.52;;;12.30;99.90;;;;;;5057443;28;20051;-79
2023/03/13 04:44:51;;;;;;;1.65;0.40;;;12.30;99.90;;;;;;5064309;28;20056;-77
2023/03/13 04:47:18;;;;;;;0.77;0.50;;;12.30;99.90;;;;;;5058805;28;20052;-78
2023/03/13 04:49:45;;;;;;;0.70;0.40;;;12.30;99.90;;;;;;5072199;28;20131;-78
2023/03/13 04:52:12;;;;;;;0.52;0.50;;;12.30;99.90;;;;;;5072402;28;20049;-78
2023/03/13 04:54:38;;;;;;;1.13;0.60;;;12.30;99.90;;;;;;5077733;28;20461;-76
2023/03/13 04:57:05;;;;;;;1.15;0.40;;;12.30;99.90;;;;;;5070354;28;20531;-81
2023/03/13 04:59:32;;;;;;;4.53;0.65;;;12.30;99.90;;;;;;5071178;28;20054;-78
2023/03/13 05:01:58;;;;;;;1.40;0.40;;;12.30;99.90;;;;;;5067265;28;20087;-78
2023/03/13 05:04:25;;;;;;;2.42;0.55;;;12.30;99.90;;;;;;5067259;28;20040;-77
2023/03/13 05:06:52;;;;;;;2.05;0.50;;;12.30;99.90;;;;;;5066589;28;20064;-78
2023/03/13 05:09:18;;;;;;;0.85;0.50;;;12.30;99.90;;;;;;5065886;28;20512;-78
2023/03/13 05:11:45;;;;;;;1.48;0.40;;;12.40;99.90;;;;;;5063363;28;20156;-74
2023/03/13 05:14:12;;;;;;;2.55;0.50;;;12.40;99.90;;;;;;5069940;28;20056;-79
2023/03/13 05:16:38;;;;;;;2.60;0.57;;;12.40;99.90;;;;;;5063281;28;20044;-78
2023/03/13 05:19:05;;;;;;;1.00;0.50;;;12.40;99.90;;;;;;5062786;28;20570;-76
2023/03/13 05:21:32;;;;;;;1.33;0.77;;;12.40;99.90;;;;;;5073357;28;20127;-75
2023/03/13 05:23:58;;;;;;;2.80;0.55;;;12.40;99.90;;;;;;5060705;28;20052;-78
2023/03/13 05:26:25;;;;;;;4.20;0.40;;;12.40;99.90;;;;;;5065359;28;20040;-78
2023/03/13 05:28:52;;;;;;;1.33;0.70;;;12.40;99.90;;;;;;5060481;28;20107;-77
2023/03/13 05:31:18;;;;;;;1.67;0.40;;;12.40;99.90;;;;;;5062847;28;20049;-78
2023/03/13 05:33:45;;;;;;;3.03;0.90;;;12.40;99.90;;;;;;5063653;28;20084;-77
2023/03/13 05:36:12;;;;;;;3.42;1.05;;;12.40;99.90;;;;;;5072420;28;20044;-77
2023/03/13 05:38:38;;;;;;;1.15;0.55;;;12.40;99.90;;;;;;5070634;28;20040;-78
2023/03/13 05:41:05;;;;;;;2.58;0.40;;;12.40;99.90;;;;;;5070625;28;20049;-78
2023/03/13 05:43:32;;;;;;;1.05;0.40;;;12.40;99.90;;;;;;5075123;28;20067;-78
2023/03/13 05:45:58;;;;;;;0.90;0.30;;;12.40;99.90;;;;;;5068029;28;20469;-77
2023/03/13 05:48:25;;;;;;;0.60;0.40;;;12.40;99.90;;;;;;5062529;28;20447;-77
2023/03/13 05:50:52;;;;;;;0.73;0.40;;;12.50;99.90;;;;;;5064043;28;20053;-78
2023/03/13 05:53:18;;;;;;;2.10;0.50;;;12.40;99.90;;;;;;5064635;28;20045;-75
2023/03/13 05:55:45;;;;;;;0.47;0.32;;;12.40;99.90;;;;;;5065845;28;20045;-77
2023/03/13 05:58:11;;;;;;;2.10;0.50;;;12.50;99.90;;;;;;5070013;28;20053;-79
2023/03/13 06:00:38;;;;;;;1.13;0.52;;;12.50;99.90;;;;;;5062454;28;20515;-78
2023/03/13 06:03:05;;;;;;;1.85;0.40;;;12.50;99.90;;;;;;5069585;28;20047;-76
2023/03/13 06:05:31;;;;;;;0.85;0.73;;;12.50;99.90;;;;;;5071824;28;20592;-78
2023/03/13 06:07:58;;;;;;;1.92;0.40;;;12.50;99.90;;;;;;5056615;28;20142;-78
2023/03/13 06:10:25;;;;;;;0.40;0.30;;;12.50;99.90;;;;;;5064786;28;20063;-77
2023/03/13 06:12:53;;;;;;;2.45;0.50;;;12.60;99.90;;;;;;5055447;28;20072;-76
2023/03/13 06:15:20;;;;;;;1.48;0.55;;;12.60;99.90;;;;;;5066038;28;20053;-78
2023/03/13 06:17:47;;;;;;;1.15;0.40;;;12.60;99.90;;;;;;5057786;28;20045;-77
2023/03/13 06:20:14;;;;;;;2.83;0.32;;;12.60;99.90;;;;;;5075223;28;20045;-78
2023/03/13 06:22:41;;;;;;;1.35;0.40;;;12.70;99.90;;;;;;5080790;28;20070;-78
2023/03/13 06:25:09;;;;;;;1.08;0.52;;;12.70;99.90;;;;;;5073391;28;20048;-78
2023/03/13 06:27:35;;;;;;;3.22;0.52;;;12.70;99.90;;;;;;5074220;28;20039;-78
2023/03/13 06:30:02;;;;;;;1.73;0.40;;;12.70;99.90;;;;;;5067553;28;20123;-78
2023/03/13 06:32:29;;;;;;;1.67;0.40;;;12.70;99.90;;;;;;5071081;28;20094;-77
2023/03/13 06:34:56;;;;;;;1.80;0.60;;;12.80;99.90;;;;;;5066124;28;20104;-77
2023/03/13 06:37:23;;;;;;;0.80;0.65;;;12.80;99.90;;;;;;5069362;28;20132;-76
2023/03/13 06:39:49;;;;;;;1.85;0.75;;;12.80;99.90;;;;;;5065112;28;20515;-79
2023/03/13 06:42:16;;;;;;;1.70;0.90;;;12.90;99.90;;;;;;5067441;28;20070;-78
2023/03/13 06:44:43;;;;;;;1.00;0.50;;;12.90;99.90;;;;;;5073449;28;20049;-77
2023/03/13 06:47:10;;;;;;;1.25;0.38;;;13.00;99.90;;;;;;5065388;28;20052;-77
2023/03/13 06:49:39;;;;;;;0.70;0.35;;;13.00;99.90;;;;;;5065344;28;20041;-78
2023/03/13 06:52:06;;;;;;;1.23;0.60;;;13.00;99.90;;;;;;5067361;28;20054;-78
2023/03/13 06:54:33;;;;;;;2.97;0.40;;;13.10;99.90;;;;;;5063448;28;20487;-78
2023/03/13 06:57:00;;;;;;;1.48;0.40;;;13.10;99.90;;;;;;5062510;28;20041;-78
2023/03/13 06:59:27;;;;;;;2.03;0.77;;;13.10;99.90;;;;;;5062634;28;20045;-77
2023/03/13 07:01:53;;;;;;;3.08;0.70;;;13.20;99.90;;;;;;5064945;28;20120;-78
2023/03/13 07:04:20;;;;;;;0.70;0.30;;;13.20;99.90;;;;;;5069373;28;20056;-78
2023/03/13 07:06:47;;;;;;;2.80;0.68;;;13.30;99.90;;;;;;5073869;28;20045;-78
2023/03/13 07:09:14;;;;;;;0.90;0.30;;;13.30;99.90;;;;;;5072176;28;20045;-78
2023/03/13 07:11:41;;;;;;;1.00;0.40;;;13.40;99.90;;;;;;5072782;28;20048;-79
2023/03/13 07:14:07;;;;;;;0.63;0.55;;;13.40;99.90;;;;;;5068038;28;20048;-77
2023/03/13 07:16:43;;;;;;;0.60;0.32;;;13.40;99.90;;;;;;5071330;28;20052;-75
2023/03/13 07:19:10;;;;;;;1.33;0.40;;;13.40;99.90;;;;;;5070477;28;20049;-78
2023/03/13 07:21:36;;;;;;;1.60;0.47;;;13.50;99.90;;;;;;5069860;28;20036;-77
2023/03/13 07:24:03;;;;;;;1.48;0.52;;;13.50;99.90;;;;;;5067417;28;20098;-79
2023/03/13 07:26:30;;;;;;;0.70;0.47;;;13.50;99.90;;;;;;5068553;28;20040;-77
2023/03/13 07:28:57;;;;;;;0.50;0.40;;;13.50;99.90;;;;;;5065574;28;20059;-80
2023/03/13 07:31:24;;;;;;;0.50;0.40;;;13.60;99.90;;;;;;5068384;28;20049;-79
2023/03/13 07:33:55;;;;;;;1.30;0.43;;;13.70;99.90;;;;;;5073162;28;20051;-77
2023/03/13 07:36:22;;;;;;;0.73;0.38;;;13.70;99.90;;;;;;5066933;28;20055;-79
2023/03/13 07:38:51;;;;;;;3.50;0.98;;;13.80;99.90;;;;;;5058997;28;20063;-78
2023/03/13 07:41:19;;;;;;;1.00;0.57;;;13.90;99.90;;;;;;5066028;28;20051;-78
2023/03/13 07:43:46;;;;;;;1.85;0.50;;;14.00;99.90;;;;;;5061366;28;20056;-78
2023/03/13 07:46:17;;;;;;;0.60;0.40;;;14.00;99.90;;;;;;5066125;28;20091;-78
2023/03/13 07:48:45;;;;;;;2.30;0.50;;;14.10;99.90;;;;;;5063270;28;20486;-81
2023/03/13 07:51:17;;;;;;;0.65;0.40;;;14.20;99.90;;;;;;5072471;28;20059;-79
2023/03/13 07:53:49;;;;;;;1.05;0.40;;;14.20;99.90;;;;;;5073292;28;20045;-79
2023/03/13 07:56:18;;;;;;;0.40;0.25;;;14.20;99.90;;;;;;5069389;28;20157;-79
2023/03/13 07:58:45;;;;;;;2.53;0.53;;;14.30;99.90;;;;;;5065196;28;20047;-78
2023/03/13 08:01:19;;;;;;;2.03;0.40;;;14.30;99.90;;;;;;5066707;28;20153;-76
2023/03/13 08:03:49;;;;;;;0.95;0.43;;;14.30;99.90;;;;;;5069741;28;20049;-78
2023/03/13 08:06:18;;;;;;;6.05;0.50;;;14.30;99.90;;;;;;5067313;28;20110;-78
2023/03/13 08:08:46;;;;;;;0.57;0.50;;;14.30;99.90;;;;;;5068580;28;20095;-78
2023/03/13 08:11:15;;;;;;;0.88;0.43;;;14.30;99.90;;;;;;5063466;28;20053;-79
2023/03/13 08:13:42;;;;;;;1.08;0.52;;;14.30;99.90;;;;;;5067174;28;20053;-78
2023/03/13 08:16:22;;;;;;;2.28;0.40;;;14.30;99.90;;;;;;5060656;28;20048;-82
2023/03/13 08:18:52;;;;;;;0.88;0.32;;;14.30;99.90;;;;;;5061144;28;20052;-78
2023/03/13 08:21:24;;;;;;;0.40;0.30;;;14.30;99.90;;;;;;5060734;28;20071;-78
2023/03/13 08:23:56;;;;;;;0.70;0.70;;;14.40;99.90;;;;;;5074900;28;20048;-78
2023/03/13 08:26:26;;;;;;;0.90;0.47;;;14.50;99.90;;;;;;5061547;28;20072;-77
2023/03/13 08:28:58;;;;;;;0.83;0.30;;;14.50;99.90;;;;;;5062103;28;20057;-79
2023/03/13 08:31:27;;;;;;;2.53;0.30;;;14.50;99.90;;;;;;5063433;28;20076;-78
2023/03/13 08:33:54;;;;;;;5.28;0.98;;;14.60;99.90;;;;;;5061556;28;20045;-79
2023/03/13 08:36:33;;;;;;;2.28;0.88;;;14.70;99.90;;;;;;5068013;28;20588;-78
2023/03/13 08:39:03;;;;;;;1.02;0.43;;;14.70;99.90;;;;;;5067160;28;20056;-77
2023/03/13 08:41:35;;;;;;;1.77;0.70;;;14.80;99.90;;;;;;5065389;28;20151;-77
2023/03/13 08:44:04;;;;;;;1.55;0.47;;;14.90;99.90;;;;;;5058804;28;20068;-78
2023/03/13 08:46:33;;;;;;;0.77;0.40;;;15.00;99.90;;;;;;5061445;28;20044;-80
2023/03/13 08:49:00;;;;;;;2.00;0.97;;;15.00;99.90;;;;;;5058381;28;20492;-79
2023/03/13 08:51:28;;;;;;;2.45;0.45;;;15.10;99.90;;;;;;5061970;28;20044;-79
2023/03/13 08:53:55;;;;;;;2.85;0.60;;;15.10;99.90;;;;;;5059640;28;20061;-79
2023/03/13 08:56:24;;;;;;;2.75;0.70;;;15.10;99.90;;;;;;5062675;28;20135;-79
2023/03/13 08:58:53;;;;;;;2.87;1.87;;;15.10;99.90;;;;;;5056221;28;20044;-78
2023/03/13 09:01:22;;;;;;;2.35;1.23;;;15.10;99.90;;;;;;5058945;28;20124;-77
2023/03/13 09:03:49;;;;;;;0.40;0.40;;;15.10;99.90;;;;;;5066376;28;20109;-80
2023/03/13 09:06:16;;;;;;;6.78;0.50;;;15.20;99.90;;;;;;5064653;28;20114;-77
2023/03/13 09:08:43;;;;;;;1.90;0.47;;;15.20;99.90;;;;;;5058088;28;20045;-79
2023/03/13 09:11:20;;;;;;;2.05;0.50;;;15.20;99.90;;;;;;5062777;28;20049;-75
2023/03/13 09:13:49;;;;;;;3.33;0.50;;;15.20;99.90;;;;;;5066755;28;20055;-78
2023/03/13 09:16:19;;;;;;;2.10;0.32;;;15.20;99.90;;;;;;5056445;28;20053;-78
2023/03/13 09:18:46;;;;;;;1.45;0.32;;;15.20;99.90;;;;;;5056677;28;20048;-80
2023/03/13 09:21:15;;;;;;;1.17;0.82;;;15.10;99.90;;;;;;5063898;28;20098;-78
2023/03/13 09:23:42;;;;;;;3.70;0.60;;;15.20;99.90;;;;;;5061803;28;20049;-81
2023/03/13 09:26:09;;;;;;;2.28;0.43;;;15.20;99.90;;;;;;5064950;28;20044;-79
2023/03/13 09:28:36;;;;;;;1.02;0.38;;;15.20;99.90;;;;;;5061097;28;20109;-78
2023/03/13 09:31:10;;;;;;;1.15;0.45;;;15.20;99.90;;;;;;5059091;28;20060;-76
2023/03/13 09:33:37;;;;;;;0.70;0.50;;;15.30;99.90;;;;;;5062785;28;20067;-79
2023/03/13 09:36:04;;;;;;;4.10;0.52;;;15.40;99.90;;;;;;5058180;28;20059;-77
2023/03/13 09:38:31;;;;;;;2.22;0.30;;;15.40;99.90;;;;;;5057730;28;20057;-76
2023/03/13 09:41:14;;;;;;;2.65;0.50;;;15.50;99.90;;;;;;5057534;28;20059;-78
2023/03/13 09:43:41;;;;;;;1.00;0.47;;;15.60;99.90;;;;;;5057729;28;20048;-78
2023/03/13 09:46:24;;;;;;;1.52;0.50;;;15.60;99.90;;;;;;5056874;28;20067;-78
2023/03/13 09:48:56;;;;;;;2.17;0.50;;;15.80;99.90;;;;;;5055912;28;20065;-78
2023/03/13 09:51:22;;;;;;;2.30;0.60;;;15.90;99.90;;;;;;5057280;28;20486;-76
2023/03/13 09:54:05;;;;;;;1.33;0.60;;;16.10;99.90;;;;;;5058466;28;20045;-78
2023/03/13 09:56:43;;;;;;;3.65;0.70;;;16.20;99.90;;;;;;5058616;28;20523;-78
2023/03/13 09:59:27;;;;;;;2.13;0.60;;;16.30;99.90;;;;;;5059522;28;20045;-79
2023/03/13 10:01:58;;;;;;;1.40;0.32;;;16.50;99.90;;;;;;5067873;28;20068;-78
2023/03/13 10:04:38;;;;;;;2.47;0.57;;;16.60;99.90;;;;;;5061532;28;20052;-77
2023/03/13 10:07:11;;;;;;;1.33;0.40;;;16.80;99.90;;;;;;5066821;28;20049;-78
2023/03/13 10:09:39;;;;;;;;;;;17.00;99.90;;;;;;5060005;28;20056;-78
2023/03/13 10:12:29;;;;;;;0.75;0.40;;;17.10;99.90;;;;;;5062074;28;19924;-79
2023/03/13 10:15:31;;;;;;;1.65;0.65;;;17.20;99.90;;;;;;5060286;28;20416;-79
2023/03/13 10:18:05;;;;;;;3.75;0.55;;;17.30;99.90;;;;;;5058331;28;20053;-80
2023/03/13 10:20:35;;;;;;;2.45;0.65;;;17.40;99.90;;;;;;5062839;28;20496;-79
2023/03/13 10:23:19;;;;;;;4.35;0.57;;;17.40;99.90;;;;;;5057096;28;20124;-76
2023/03/13 10:25:46;;;;;;;7.68;0.73;;;17.40;99.90;;;;;;5058984;28;20044;-76
2023/03/13 10:28:15;;;;;;;1.05;0.30;;;17.40;99.90;;;;;;5057069;28;20432;-79
2023/03/13 10:30:47;;;;;;;3.65;0.47;;;17.50;99.90;;;;;;5063612;28;20060;-79
2023/03/13 10:33:25;;;;;;;1.05;0.40;;;17.60;99.90;;;;;;5069009;28;20064;-78
2023/03/13 10:36:19;;;;;;;0.68;0.45;;;17.60;99.90;;;;;;5059499;28;20321;-78
2023/03/13 10:38:46;;;;;;;0.77;0.47;;;17.60;99.90;;;;;;5061362;28;20049;-78
2023/03/13 10:41:24;;;;;;;3.53;0.60;;;17.70;99.90;;;;;;5059836;28;20045;-80
2023/03/13 10:44:03;;;;;;;0.50;0.40;;;17.70;99.90;;;;;;5056664;28;20083;-79
2023/03/13 10:46:32;;;;;;;1.95;0.45;;;17.60;99.90;;;;;;5061320;28;20120;-79
2023/03/13 10:49:02;;;;;;;1.90;0.77;;;17.60;99.90;;;;;;5058383;28;20044;-79
2023/03/13 10:51:37;;;;;;;5.32;0.40;;;17.50;99.90;;;;;;5057880;28;20049;-79
2023/03/13 10:54:30;;;;;;;7.35;0.65;;;17.40;99.90;;;;;;5061435;28;20518;-79
2023/03/13 10:57:27;;;;;;;1.27;0.50;;;17.40;99.90;;;;;;5064246;28;20053;-79
2023/03/13 10:59:54;;;;;;;2.97;0.50;;;17.40;99.90;;;;;;5066707;28;20049;-79
2023/03/13 11:02:21;;;;;;;2.70;0.40;;;17.40;99.90;;;;;;5055760;28;20063;-77
2023/03/13 11:04:52;;;;;;;8.30;1.48;;;17.40;99.90;;;;;;5061876;28;20051;-79
2023/03/13 11:07:39;;;;;;;1.88;0.35;;;17.50;99.90;;;;;;5060258;28;20055;-78
2023/03/13 11:10:28;;;;;;;0.50;0.40;;;17.50;99.90;;;;;;5061259;28;20049;-81
2023/03/13 11:12:57;;;;;;;1.75;0.35;;;17.60;99.90;;;;;;5058413;28;20048;-80
2023/03/13 11:15:48;;;;;;;1.08;0.30;;;17.60;99.90;;;;;;5062311;28;22167;-77
2023/03/13 11:18:43;;;;;;;1.10;0.55;;;17.60;99.90;;;;;;5058984;28;20052;-78
2023/03/13 11:21:22;;;;;;;2.10;0.30;;;17.70;99.90;;;;;;5056554;28;20393;-78
2023/03/13 11:24:00;;;;;;;1.00;0.40;;;17.70;99.90;;;;;;5057363;28;20040;-80
2023/03/13 11:26:47;;;;;;;2.28;0.38;;;17.80;99.90;;;;;;5054924;28;20123;-78
2023/03/13 11:29:48;;;;;;;1.65;0.95;;;17.80;99.90;;;;;;5054197;28;20053;-79
2023/03/13 11:32:55;;;;;;;0.88;0.40;;;17.90;99.90;;;;;;5055817;28;20523;-79
2023/03/13 11:35:49;;;;;;;0.70;0.40;;;17.90;99.90;;;;;;5064534;28;20132;-78
2023/03/13 11:38:30;;;;;;;2.85;0.45;;;17.90;99.90;;;;;;5062635;28;20080;-78
2023/03/13 11:41:09;;;;;;;0.68;0.32;;;18.00;99.90;;;;;;5064300;28;20053;-78
2023/03/13 11:44:05;;;;;;;1.52;0.43;;;18.10;99.90;;;;;;5060799;28;20183;-78
2023/03/13 11:46:56;;;;;;;1.92;0.30;;;18.10;99.90;;;;;;5063471;28;20044;-78
2023/03/13 11:49:41;;;;;;;0.55;0.30;;;18.10;99.90;;;;;;5065116;28;20057;-78
2023/03/13 11:52:23;;;;;;;4.03;0.50;;;18.20;99.90;;;;;;5059053;28;20420;-79
2023/03/13 11:55:32;;;;;;;1.55;0.28;;;18.20;99.90;;;;;;5065898;28;20048;-79
2023/03/13 11:58:14;;;;;;;13.27;0.93;;;18.20;99.90;;;;;;5055769;28;20037;-79
2023/03/13 12:00:58;;;;;;;1.40;0.60;;;18.30;99.90;;;;;;5061979;28;20420;-78
2023/03/13 12:03:46;;;;;;;0.65;0.45;;;18.40;99.90;;;;;;5065246;28;20049;-79
2023/03/13 12:06:25;;;;;;;1.55;0.38;;;18.50;99.90;;;;;;5058842;28;20054;-79
2023/03/13 12:09:08;;;;;;;4.13;0.50;;;18.70;99.90;;;;;;5055939;28;20049;-78
2023/03/13 12:11:45;;;;;;;9.13;0.63;;;18.80;99.90;;;;;;5058957;28;20419;-79
2023/03/13 12:14:30;;;;;;;1.67;0.70;;;18.80;99.90;;;;;;5064705;28;20049;-77
2023/03/13 12:17:04;;;;;;;1.42;0.40;;;18.90;99.90;;;;;;5056884;28;20052;-80
2023/03/13 12:19:49;;;;;;;6.22;0.95;;;19.00;99.90;;;;;;5060413;28;20060;-79
2023/03/13 12:22:25;;;;;;;4.75;0.50;;;19.00;99.90;;;;;;5061079;28;20041;-77
2023/03/13 12:25:13;;;;;;;2.08;0.35;;;18.90;99.90;;;;;;5059933;28;20637;-78
2023/03/13 12:27:45;;;;;;;4.07;1.75;;;18.90;99.90;;;;;;5060998;28;20070;-78
2023/03/13 12:30:34;;;;;;;4.45;0.40;;;18.90;99.90;;;;;;5055690;28;20037;-79
2023/03/13 12:33:25;;;;;;;6.18;0.50;;;19.00;99.90;;;;;;5062227;28;20127;-79
2023/03/13 12:36:25;;;;;;;0.88;0.30;;;19.10;99.90;;;;;;5061193;28;20077;-78
2023/03/13 12:39:03;;;;;;;0.95;0.40;;;19.10;99.90;;;;;;5057310;28;20106;-80
2023/03/13 12:41:42;;;;;;;0.73;0.30;;;19.20;99.90;;;;;;5062126;28;20047;-79
2023/03/13 12:44:18;;;;;;;2.97;0.60;;;19.30;99.90;;;;;;5063678;28;20055;-81
2023/03/13 12:46:52;;;;;;;7.70;0.50;;;19.30;99.90;;;;;;5061073;28;20080;-78
2023/03/13 12:49:46;;;;;;;5.15;0.60;;;19.30;99.90;;;;;;5065253;28;20094;-79
2023/03/13 12:52:35;;;;;;;4.20;0.50;;;19.30;99.90;;;;;;5060566;28;20056;-79
2023/03/13 12:55:22;;;;;;;3.45;0.50;;;19.40;99.90;;;;;;5065000;28;20056;-79
2023/03/13 12:58:23;;;;;;;2.38;0.50;;;19.50;99.90;;;;;;5059389;28;20048;-79
2023/03/13 13:00:52;;;;;;;6.95;0.60;;;19.60;99.90;;;;;;5061484;28;20052;-78
2023/03/13 13:03:35;;;;;;;11.07;0.60;;;19.70;99.90;;;;;;5062057;28;20541;-81
2023/03/13 13:06:04;;;;;;;11.90;0.70;;;19.80;99.90;;;;;;5070367;28;20052;-79
2023/03/13 13:08:37;;;;;;;2.55;0.65;;;19.90;99.90;;;;;;5073246;28;20418;-79
2023/03/13 13:11:35;;;;;;;13.70;1.00;;;20.00;99.90;;;;;;5067973;28;20135;-79